sensor_id;sensor_type;location;lat;lon;timestamp;temperature;humidity
15450;DHT22;7826;49.784;9.934;2023-10-13T00:01:55;13.40;1.00
15450;DHT22;7826;49.784;9.934;2023-10-13T00:04:23;13.40;1.00
15450;DHT22;7826;49.784;9.934;2023-10-13T00:06:51;13.30;1.00
15450;DHT22;7826;49.784;9.934;2023-10-13T00:09:19;13.30;1.00
15450;DHT22;7826;49.784;9.934;2023-10-13T00:11:53;13.30;1.00
15450;DHT22;7826;49.784;9.934;2023-10-13T00:14:20;13.30;1.00
15450;DHT22;7826;49.784;9.934;2023-10-13T00:16:57;13.30;1.00
15450;DHT22;7826;49.784;9.934;2023-10-13T00:19:36;13.20;1.00
15450;DHT22;7826;49.784;9.934;2023-10-13T00:22:14;13.30;1.00
15450;DHT22;7826;49.784;9.934;2023-10-13T00:24:43;13.20;1.00
15450;DHT22;7826;49.784;9.934;2023-10-13T00:27:17;13.30;1.00
15450;DHT22;7826;49.784;9.934;2023-10-13T00:29:57;13.40;1.00
15450;DHT22;7826;49.784;9.934;2023-10-13T00:32:45;13.30;1.00
15450;DHT22;7826;49.784;9.934;2023-10-13T00:35:26;13.30;1.00
15450;DHT22;7826;49.784;9.934;2023-10-13T00:38:05;13.20;1.00
15450;DHT22;7826;49.784;9.934;2023-10-13T00:40:43;13.20;1.00
15450;DHT22;7826;49.784;9.934;2023-10-13T00:43:12;13.20;1.00
15450;DHT22;7826;49.784;9.934;2023-10-13T00:45:56;13.20;1.00
15450;DHT22;7826;49.784;9.934;2023-10-13T00:48:36;13.20;1.00
15450;DHT22;7826;49.784;9.934;2023-10-13T00:51:12;13.20;1.00
15450;DHT22;7826;49.784;9.934;2023-10-13T00:54:00;13.30;1.00
15450;DHT22;7826;49.784;9.934;2023-10-13T00:56:29;13.30;1.00
15450;DHT22;7826;49.784;9.934;2023-10-13T00:58:57;13.30;1.00
15450;DHT22;7826;49.784;9.934;2023-10-13T01:01:29;13.30;1.00
15450;DHT22;7826;49.784;9.934;2023-10-13T01:03:59;13.30;1.00
15450;DHT22;7826;49.784;9.934;2023-10-13T01:06:27;13.20;1.00
15450;DHT22;7826;49.784;9.934;2023-10-13T01:09:12;13.30;1.00
15450;DHT22;7826;49.784;9.934;2023-10-13T01:11:50;13.30;1.00
15450;DHT22;7826;49.784;9.934;2023-10-13T01:14:22;13.20;1.00
15450;DHT22;7826;49.784;9.934;2023-10-13T01:16:50;13.20;1.00
15450;DHT22;7826;49.784;9.934;2023-10-13T01:19:19;13.20;1.00
15450;DHT22;7826;49.784;9.934;2023-10-13T01:21:54;13.20;1.00
15450;DHT22;7826;49.784;9.934;2023-10-13T01:24:28;13.20;1.00
15450;DHT22;7826;49.784;9.934;2023-10-13T01:27:02;13.20;1.00
15450;DHT22;7826;49.784;9.934;2023-10-13T01:29:44;13.20;1.00
15450;DHT22;7826;49.784;9.934;2023-10-13T01:32:30;13.20;1.00
15450;DHT22;7826;49.784;9.934;2023-10-13T01:34:57;13.20;1.00
15450;DHT22;7826;49.784;9.934;2023-10-13T01:37:31;13.10;1.00
15450;DHT22;7826;49.784;9.934;2023-10-13T01:39:57;13.10;1.00
15450;DHT22;7826;49.784;9.934;2023-10-13T01:42:24;13.20;1.00
15450;DHT22;7826;49.784;9.934;2023-10-13T01:44:51;13.20;1.00
15450;DHT22;7826;49.784;9.934;2023-10-13T01:47:17;13.30;1.00
15450;DHT22;7826;49.784;9.934;2023-10-13T01:49:44;13.30;1.00
15450;DHT22;7826;49.784;9.934;2023-10-13T01:52:14;13.30;1.00
15450;DHT22;7826;49.784;9.934;2023-10-13T01:54:45;13.30;1.00
15450;DHT22;7826;49.784;9.934;2023-10-13T01:57:12;13.20;1.00
15450;DHT22;7826;49.784;9.934;2023-10-13T01:59:40;13.20;1.00
15450;DHT22;7826;49.784;9.934;2023-10-13T02:02:11;13.20;1.00
15450;DHT22;7826;49.784;9.934;2023-10-13T02:04:41;13.30;1.00
15450;DHT22;7826;49.784;9.934;2023-10-13T02:07:09;13.30;1.00
15450;DHT22;7826;49.784;9.934;2023-10-13T02:09:36;13.30;1.00
15450;DHT22;7826;49.784;9.934;2023-10-13T02:12:03;13.30;1.00
15450;DHT22;7826;49.784;9.934;2023-10-13T02:14:29;13.30;1.00
15450;DHT22;7826;49.784;9.934;2023-10-13T02:16:59;13.30;1.00
15450;DHT22;7826;49.784;9.934;2023-10-13T02:19:43;13.20;1.00
15450;DHT22;7826;49.784;9.934;2023-10-13T02:22:13;13.20;1.00
15450;DHT22;7826;49.784;9.934;2023-10-13T02:24:53;13.30;1.00
15450;DHT22;7826;49.784;9.934;2023-10-13T02:27:20;13.20;1.00
15450;DHT22;7826;49.784;9.934;2023-10-13T02:29:50;13.30;1.00
15450;DHT22;7826;49.784;9.934;2023-10-13T02:32:25;13.30;1.00
15450;DHT22;7826;49.784;9.934;2023-10-13T02:34:53;13.30;1.00
15450;DHT22;7826;49.784;9.934;2023-10-13T02:37:24;13.30;1.00
15450;DHT22;7826;49.784;9.934;2023-10-13T02:39:50;13.30;1.00
15450;DHT22;7826;49.784;9.934;2023-10-13T02:42:16;13.30;1.00
15450;DHT22;7826;49.784;9.934;2023-10-13T02:44:50;13.40;1.00
15450;DHT22;7826;49.784;9.934;2023-10-13T02:47:17;13.40;1.00
15450;DHT22;7826;49.784;9.934;2023-10-13T02:49:46;13.50;1.00
15450;DHT22;7826;49.784;9.934;2023-10-13T02:52:13;13.60;1.00
15450;DHT22;7826;49.784;9.934;2023-10-13T02:54:41;13.60;1.00
15450;DHT22;7826;49.784;9.934;2023-10-13T02:57:17;13.60;1.00
15450;DHT22;7826;49.784;9.934;2023-10-13T02:59:45;13.60;1.00
15450;DHT22;7826;49.784;9.934;2023-10-13T03:02:15;13.60;1.00
15450;DHT22;7826;49.784;9.934;2023-10-13T03:04:53;13.60;1.00
15450;DHT22;7826;49.784;9.934;2023-10-13T03:07:26;13.60;1.00
15450;DHT22;7826;49.784;9.934;2023-10-13T03:09:57;13.60;1.00
15450;DHT22;7826;49.784;9.934;2023-10-13T03:12:26;13.60;1.00
15450;DHT22;7826;49.784;9.934;2023-10-13T03:14:59;13.60;1.00
15450;DHT22;7826;49.784;9.934;2023-10-13T03:17:46;13.60;1.00
15450;DHT22;7826;49.784;9.934;2023-10-13T03:20:14;13.60;1.00
15450;DHT22;7826;49.784;9.934;2023-10-13T03:22:45;13.60;1.00
15450;DHT22;7826;49.784;9.934;2023-10-13T03:25:14;13.50;1.00
15450;DHT22;7826;49.784;9.934;2023-10-13T03:27:51;13.60;1.00
15450;DHT22;7826;49.784;9.934;2023-10-13T03:30:18;13.60;1.00
15450;DHT22;7826;49.784;9.934;2023-10-13T03:32:47;13.60;1.00
15450;DHT22;7826;49.784;9.934;2023-10-13T03:35:22;13.60;1.00
15450;DHT22;7826;49.784;9.934;2023-10-13T03:37:57;13.60;1.00
15450;DHT22;7826;49.784;9.934;2023-10-13T03:40:24;13.60;1.00
15450;DHT22;7826;49.784;9.934;2023-10-13T03:42:52;13.60;1.00
15450;DHT22;7826;49.784;9.934;2023-10-13T03:45:25;13.70;1.00
15450;DHT22;7826;49.784;9.934;2023-10-13T03:47:52;13.70;1.00
15450;DHT22;7826;49.784;9.934;2023-10-13T03:50:19;13.80;1.00
15450;DHT22;7826;49.784;9.934;2023-10-13T03:52:56;13.80;1.00
15450;DHT22;7826;49.784;9.934;2023-10-13T03:55:26;13.80;1.00
15450;DHT22;7826;49.784;9.934;2023-10-13T03:57:58;13.80;1.00
15450;DHT22;7826;49.784;9.934;2023-10-13T04:00:26;14.00;1.00
15450;DHT22;7826;49.784;9.934;2023-10-13T04:02:56;14.00;1.00
15450;DHT22;7826;49.784;9.934;2023-10-13T04:05:33;14.00;1.00
15450;DHT22;7826;49.784;9.934;2023-10-13T04:08:07;14.00;1.00
15450;DHT22;7826;49.784;9.934;2023-10-13T04:10:53;14.00;1.00
15450;DHT22;7826;49.784;9.934;2023-10-13T04:13:20;14.10;1.00
15450;DHT22;7826;49.784;9.934;2023-10-13T04:16:08;14.20;1.00
15450;DHT22;7826;49.784;9.934;2023-10-13T04:19:02;14.10;1.00
15450;DHT22;7826;49.784;9.934;2023-10-13T04:21:28;14.20;1.00
15450;DHT22;7826;49.784;9.934;2023-10-13T04:24:18;14.20;1.00
15450;DHT22;7826;49.784;9.934;2023-10-13T04:26:53;14.20;1.00
15450;DHT22;7826;49.784;9.934;2023-10-13T04:29:39;14.30;1.00
15450;DHT22;7826;49.784;9.934;2023-10-13T04:32:15;14.30;1.00
15450;DHT22;7826;49.784;9.934;2023-10-13T04:34:42;14.30;1.00
15450;DHT22;7826;49.784;9.934;2023-10-13T04:37:12;14.30;1.00
15450;DHT22;7826;49.784;9.934;2023-10-13T04:39:59;14.40;1.00
15450;DHT22;7826;49.784;9.934;2023-10-13T04:42:36;14.40;1.00
15450;DHT22;7826;49.784;9.934;2023-10-13T04:45:21;14.40;1.00
15450;DHT22;7826;49.784;9.934;2023-10-13T04:48:11;14.40;1.00
15450;DHT22;7826;49.784;9.934;2023-10-13T04:50:46;14.40;1.00
15450;DHT22;7826;49.784;9.934;2023-10-13T04:53:18;14.50;1.00
15450;DHT22;7826;49.784;9.934;2023-10-13T04:56:00;14.50;1.00
15450;DHT22;7826;49.784;9.934;2023-10-13T04:58:54;14.50;1.00
15450;DHT22;7826;49.784;9.934;2023-10-13T05:01:39;14.60;1.00
15450;DHT22;7826;49.784;9.934;2023-10-13T05:04:26;14.60;1.00
15450;DHT22;7826;49.784;9.934;2023-10-13T05:07:19;14.50;1.00
15450;DHT22;7826;49.784;9.934;2023-10-13T05:10:06;14.50;1.00
15450;DHT22;7826;49.784;9.934;2023-10-13T05:12:51;14.60;1.00
15450;DHT22;7826;49.784;9.934;2023-10-13T05:15:43;14.60;1.00
15450;DHT22;7826;49.784;9.934;2023-10-13T05:18:28;14.60;1.00
15450;DHT22;7826;49.784;9.934;2023-10-13T05:21:14;14.60;1.00
15450;DHT22;7826;49.784;9.934;2023-10-13T05:23:59;14.60;1.00
15450;DHT22;7826;49.784;9.934;2023-10-13T05:26:44;14.60;1.00
15450;DHT22;7826;49.784;9.934;2023-10-13T05:29:29;14.60;1.00
15450;DHT22;7826;49.784;9.934;2023-10-13T05:32:15;14.60;1.00
15450;DHT22;7826;49.784;9.934;2023-10-13T05:35:00;14.50;1.00
15450;DHT22;7826;49.784;9.934;2023-10-13T05:37:45;14.50;1.00
15450;DHT22;7826;49.784;9.934;2023-10-13T05:40:30;14.50;1.00
15450;DHT22;7826;49.784;9.934;2023-10-13T05:43:18;14.50;1.00
15450;DHT22;7826;49.784;9.934;2023-10-13T05:46:04;14.40;1.00
15450;DHT22;7826;49.784;9.934;2023-10-13T05:49:03;14.50;1.00
15450;DHT22;7826;49.784;9.934;2023-10-13T05:52:06;14.50;1.00
15450;DHT22;7826;49.784;9.934;2023-10-13T05:54:48;14.40;1.00
15450;DHT22;7826;49.784;9.934;2023-10-13T05:57:33;14.50;1.00
15450;DHT22;7826;49.784;9.934;2023-10-13T06:00:40;14.50;1.00
15450;DHT22;7826;49.784;9.934;2023-10-13T06:03:26;14.50;1.00
15450;DHT22;7826;49.784;9.934;2023-10-13T06:06:11;14.60;1.00
15450;DHT22;7826;49.784;9.934;2023-10-13T06:08:57;14.60;1.00
15450;DHT22;7826;49.784;9.934;2023-10-13T06:11:42;14.60;1.00
15450;DHT22;7826;49.784;9.934;2023-10-13T06:14:28;14.60;1.00
15450;DHT22;7826;49.784;9.934;2023-10-13T06:17:19;14.70;1.00
15450;DHT22;7826;49.784;9.934;2023-10-13T06:20:05;14.70;1.00
15450;DHT22;7826;49.784;9.934;2023-10-13T06:22:51;14.80;1.00
15450;DHT22;7826;49.784;9.934;2023-10-13T06:25:38;14.90;1.00
15450;DHT22;7826;49.784;9.934;2023-10-13T06:28:26;14.90;1.00
15450;DHT22;7826;49.784;9.934;2023-10-13T06:31:11;14.90;1.00
15450;DHT22;7826;49.784;9.934;2023-10-13T06:33:56;15.00;1.00
15450;DHT22;7826;49.784;9.934;2023-10-13T06:36:22;15.10;1.00
15450;DHT22;7826;49.784;9.934;2023-10-13T06:38:49;15.10;1.00
15450;DHT22;7826;49.784;9.934;2023-10-13T06:41:21;15.20;1.00
15450;DHT22;7826;49.784;9.934;2023-10-13T06:43:56;15.30;1.00
15450;DHT22;7826;49.784;9.934;2023-10-13T06:46:26;15.40;1.00
15450;DHT22;7826;49.784;9.934;2023-10-13T06:48:54;15.40;1.00
15450;DHT22;7826;49.784;9.934;2023-10-13T06:51:21;15.50;1.00
15450;DHT22;7826;49.784;9.934;2023-10-13T06:53:53;15.60;1.00
15450;DHT22;7826;49.784;9.934;2023-10-13T06:56:23;15.60;1.00
15450;DHT22;7826;49.784;9.934;2023-10-13T06:58:54;15.70;1.00
15450;DHT22;7826;49.784;9.934;2023-10-13T07:01:30;15.70;1.00
15450;DHT22;7826;49.784;9.934;2023-10-13T07:04:07;15.70;1.00
15450;DHT22;7826;49.784;9.934;2023-10-13T07:06:43;15.70;1.00
15450;DHT22;7826;49.784;9.934;2023-10-13T07:09:17;15.70;1.00
15450;DHT22;7826;49.784;9.934;2023-10-13T07:12:03;15.80;1.00
15450;DHT22;7826;49.784;9.934;2023-10-13T07:14:33;15.80;1.00
15450;DHT22;7826;49.784;9.934;2023-10-13T07:17:02;15.90;1.00
15450;DHT22;7826;49.784;9.934;2023-10-13T07:19:31;15.90;1.00
15450;DHT22;7826;49.784;9.934;2023-10-13T07:21:59;16.00;1.00
15450;DHT22;7826;49.784;9.934;2023-10-13T07:24:26;16.00;1.00
15450;DHT22;7826;49.784;9.934;2023-10-13T07:26:59;16.00;1.00
15450;DHT22;7826;49.784;9.934;2023-10-13T07:29:32;16.10;1.00
15450;DHT22;7826;49.784;9.934;2023-10-13T07:32:02;16.10;1.00
15450;DHT22;7826;49.784;9.934;2023-10-13T07:34:30;16.10;1.00
15450;DHT22;7826;49.784;9.934;2023-10-13T07:37:00;16.20;1.00
15450;DHT22;7826;49.784;9.934;2023-10-13T07:39:31;16.20;1.00
15450;DHT22;7826;49.784;9.934;2023-10-13T07:42:01;16.20;1.00
15450;DHT22;7826;49.784;9.934;2023-10-13T07:44:30;16.30;1.00
15450;DHT22;7826;49.784;9.934;2023-10-13T07:47:01;16.40;1.00
15450;DHT22;7826;49.784;9.934;2023-10-13T07:49:38;16.40;1.00
15450;DHT22;7826;49.784;9.934;2023-10-13T07:52:11;16.50;1.00
15450;DHT22;7826;49.784;9.934;2023-10-13T07:54:50;16.50;1.00
15450;DHT22;7826;49.784;9.934;2023-10-13T07:57:26;16.50;1.00
15450;DHT22;7826;49.784;9.934;2023-10-13T07:59:56;16.50;1.00
15450;DHT22;7826;49.784;9.934;2023-10-13T08:02:37;16.60;1.00
15450;DHT22;7826;49.784;9.934;2023-10-13T08:05:16;16.60;1.00
15450;DHT22;7826;49.784;9.934;2023-10-13T08:07:55;16.70;1.00
15450;DHT22;7826;49.784;9.934;2023-10-13T08:10:22;16.70;1.00
15450;DHT22;7826;49.784;9.934;2023-10-13T08:12:56;16.70;1.00
15450;DHT22;7826;49.784;9.934;2023-10-13T08:15:25;16.80;1.00
15450;DHT22;7826;49.784;9.934;2023-10-13T08:18:01;16.80;1.00
15450;DHT22;7826;49.784;9.934;2023-10-13T08:20:32;16.80;1.00
15450;DHT22;7826;49.784;9.934;2023-10-13T08:23:04;16.90;1.00
15450;DHT22;7826;49.784;9.934;2023-10-13T08:25:41;16.90;1.00
15450;DHT22;7826;49.784;9.934;2023-10-13T08:28:26;16.90;1.00
15450;DHT22;7826;49.784;9.934;2023-10-13T08:31:05;16.90;1.00
15450;DHT22;7826;49.784;9.934;2023-10-13T08:33:52;16.90;1.00
15450;DHT22;7826;49.784;9.934;2023-10-13T08:36:33;17.00;1.00
15450;DHT22;7826;49.784;9.934;2023-10-13T08:39:04;17.00;1.00
15450;DHT22;7826;49.784;9.934;2023-10-13T08:41:51;17.00;1.00
15450;DHT22;7826;49.784;9.934;2023-10-13T08:44:44;17.10;1.00
15450;DHT22;7826;49.784;9.934;2023-10-13T08:47:18;17.00;1.00
15450;DHT22;7826;49.784;9.934;2023-10-13T08:49:48;17.10;1.00
15450;DHT22;7826;49.784;9.934;2023-10-13T08:52:19;17.10;1.00
15450;DHT22;7826;49.784;9.934;2023-10-13T08:55:06;17.20;1.00
15450;DHT22;7826;49.784;9.934;2023-10-13T08:57:52;17.20;1.00
15450;DHT22;7826;49.784;9.934;2023-10-13T09:00:20;17.20;1.00
15450;DHT22;7826;49.784;9.934;2023-10-13T09:03:17;17.20;1.00
15450;DHT22;7826;49.784;9.934;2023-10-13T09:05:53;17.30;1.00
15450;DHT22;7826;49.784;9.934;2023-10-13T09:08:34;17.40;1.00
15450;DHT22;7826;49.784;9.934;2023-10-13T09:11:10;17.30;1.00
15450;DHT22;7826;49.784;9.934;2023-10-13T09:13:42;17.40;1.00
15450;DHT22;7826;49.784;9.934;2023-10-13T09:16:13;17.40;1.00
15450;DHT22;7826;49.784;9.934;2023-10-13T09:19:09;17.40;1.00
15450;DHT22;7826;49.784;9.934;2023-10-13T09:21:39;17.40;1.00
15450;DHT22;7826;49.784;9.934;2023-10-13T09:24:09;17.30;1.00
15450;DHT22;7826;49.784;9.934;2023-10-13T09:26:48;17.30;1.00
15450;DHT22;7826;49.784;9.934;2023-10-13T09:29:22;17.30;1.00
15450;DHT22;7826;49.784;9.934;2023-10-13T09:32:03;17.40;1.00
15450;DHT22;7826;49.784;9.934;2023-10-13T09:34:31;17.40;1.00
15450;DHT22;7826;49.784;9.934;2023-10-13T09:37:06;17.40;1.00
15450;DHT22;7826;49.784;9.934;2023-10-13T09:39:36;17.60;1.00
15450;DHT22;7826;49.784;9.934;2023-10-13T09:42:19;17.60;1.00
15450;DHT22;7826;49.784;9.934;2023-10-13T09:44:49;17.70;1.00
15450;DHT22;7826;49.784;9.934;2023-10-13T09:47:21;17.80;1.00
15450;DHT22;7826;49.784;9.934;2023-10-13T09:49:59;17.90;1.00
15450;DHT22;7826;49.784;9.934;2023-10-13T09:52:32;18.00;1.00
15450;DHT22;7826;49.784;9.934;2023-10-13T09:55:26;18.00;1.00
15450;DHT22;7826;49.784;9.934;2023-10-13T09:57:58;18.20;1.00
15450;DHT22;7826;49.784;9.934;2023-10-13T10:00:44;18.10;1.00
15450;DHT22;7826;49.784;9.934;2023-10-13T10:03:14;18.10;1.00
15450;DHT22;7826;49.784;9.934;2023-10-13T10:05:42;18.10;1.00
15450;DHT22;7826;49.784;9.934;2023-10-13T10:08:25;18.00;1.00
15450;DHT22;7826;49.784;9.934;2023-10-13T10:11:23;17.90;1.00
15450;DHT22;7826;49.784;9.934;2023-10-13T10:14:10;17.80;1.00
15450;DHT22;7826;49.784;9.934;2023-10-13T10:17:06;17.70;1.00
15450;DHT22;7826;49.784;9.934;2023-10-13T10:20:06;17.60;1.00
15450;DHT22;7826;49.784;9.934;2023-10-13T10:22:42;17.70;1.00
15450;DHT22;7826;49.784;9.934;2023-10-13T10:25:15;17.60;1.00
15450;DHT22;7826;49.784;9.934;2023-10-13T10:27:58;17.60;1.00
15450;DHT22;7826;49.784;9.934;2023-10-13T10:30:27;17.60;1.00
15450;DHT22;7826;49.784;9.934;2023-10-13T10:32:57;17.60;1.00
15450;DHT22;7826;49.784;9.934;2023-10-13T10:35:28;17.60;1.00
15450;DHT22;7826;49.784;9.934;2023-10-13T10:38:08;17.60;1.00
15450;DHT22;7826;49.784;9.934;2023-10-13T10:40:52;17.60;1.00
15450;DHT22;7826;49.784;9.934;2023-10-13T10:46:18;17.70;1.00
15450;DHT22;7826;49.784;9.934;2023-10-13T10:48:51;17.70;1.00
15450;DHT22;7826;49.784;9.934;2023-10-13T10:51:22;17.70;1.00
15450;DHT22;7826;49.784;9.934;2023-10-13T10:53:51;17.70;1.00
15450;DHT22;7826;49.784;9.934;2023-10-13T10:56:22;17.70;1.00
15450;DHT22;7826;49.784;9.934;2023-10-13T10:58:56;17.80;1.00
15450;DHT22;7826;49.784;9.934;2023-10-13T11:01:25;17.80;1.00
15450;DHT22;7826;49.784;9.934;2023-10-13T11:04:02;17.80;1.00
15450;DHT22;7826;49.784;9.934;2023-10-13T11:06:37;17.80;1.00
15450;DHT22;7826;49.784;9.934;2023-10-13T11:09:08;17.80;1.00
15450;DHT22;7826;49.784;9.934;2023-10-13T11:11:54;17.90;1.00
15450;DHT22;7826;49.784;9.934;2023-10-13T11:14:24;17.90;1.00
15450;DHT22;7826;49.784;9.934;2023-10-13T11:16:55;18.00;1.00
15450;DHT22;7826;49.784;9.934;2023-10-13T11:19:43;18.00;1.00
15450;DHT22;7826;49.784;9.934;2023-10-13T11:22:16;18.00;1.00
15450;DHT22;7826;49.784;9.934;2023-10-13T11:25:05;18.00;1.00
15450;DHT22;7826;49.784;9.934;2023-10-13T11:27:40;18.00;1.00
15450;DHT22;7826;49.784;9.934;2023-10-13T11:30:11;18.20;1.00
15450;DHT22;7826;49.784;9.934;2023-10-13T11:32:42;18.20;1.00
15450;DHT22;7826;49.784;9.934;2023-10-13T11:35:12;18.20;1.00
15450;DHT22;7826;49.784;9.934;2023-10-13T11:37:49;18.50;1.00
15450;DHT22;7826;49.784;9.934;2023-10-13T11:40:29;18.30;1.00
15450;DHT22;7826;49.784;9.934;2023-10-13T11:46:03;18.50;1.00
15450;DHT22;7826;49.784;9.934;2023-10-13T11:48:39;18.50;1.00
15450;DHT22;7826;49.784;9.934;2023-10-13T11:51:14;18.60;1.00
15450;DHT22;7826;49.784;9.934;2023-10-13T11:53:50;18.60;1.00
15450;DHT22;7826;49.784;9.934;2023-10-13T11:56:22;18.60;1.00
15450;DHT22;7826;49.784;9.934;2023-10-13T11:58:49;18.80;1.00
15450;DHT22;7826;49.784;9.934;2023-10-13T12:01:16;18.80;1.00
15450;DHT22;7826;49.784;9.934;2023-10-13T12:03:49;18.90;1.00
15450;DHT22;7826;49.784;9.934;2023-10-13T12:06:36;19.00;1.00
15450;DHT22;7826;49.784;9.934;2023-10-13T12:09:10;19.10;1.00
15450;DHT22;7826;49.784;9.934;2023-10-13T12:11:42;19.10;1.00
15450;DHT22;7826;49.784;9.934;2023-10-13T12:14:11;19.10;1.00
15450;DHT22;7826;49.784;9.934;2023-10-13T12:17:04;19.10;1.00
15450;DHT22;7826;49.784;9.934;2023-10-13T12:19:30;19.20;1.00
15450;DHT22;7826;49.784;9.934;2023-10-13T12:21:58;19.20;1.00
15450;DHT22;7826;49.784;9.934;2023-10-13T12:24:31;19.30;1.00
15450;DHT22;7826;49.784;9.934;2023-10-13T12:27:04;19.40;1.00
15450;DHT22;7826;49.784;9.934;2023-10-13T12:29:47;19.50;1.00
15450;DHT22;7826;49.784;9.934;2023-10-13T12:32:14;19.60;1.00
15450;DHT22;7826;49.784;9.934;2023-10-13T12:34:48;19.60;1.00
15450;DHT22;7826;49.784;9.934;2023-10-13T12:37:31;19.70;1.00
15450;DHT22;7826;49.784;9.934;2023-10-13T12:40:12;19.80;1.00
15450;DHT22;7826;49.784;9.934;2023-10-13T12:42:58;19.90;1.00
15450;DHT22;7826;49.784;9.934;2023-10-13T12:45:45;20.00;1.00
15450;DHT22;7826;49.784;9.934;2023-10-13T12:48:32;20.00;1.00
15450;DHT22;7826;49.784;9.934;2023-10-13T12:51:17;20.10;1.00
15450;DHT22;7826;49.784;9.934;2023-10-13T12:53:48;20.10;1.00
15450;DHT22;7826;49.784;9.934;2023-10-13T12:56:16;20.20;1.00
15450;DHT22;7826;49.784;9.934;2023-10-13T12:58:43;20.30;1.00
15450;DHT22;7826;49.784;9.934;2023-10-13T13:01:22;20.50;1.00
15450;DHT22;7826;49.784;9.934;2023-10-13T13:03:52;20.60;1.00
15450;DHT22;7826;49.784;9.934;2023-10-13T13:06:26;20.70;1.00
15450;DHT22;7826;49.784;9.934;2023-10-13T13:08:57;20.80;1.00
15450;DHT22;7826;49.784;9.934;2023-10-13T13:11:24;20.90;1.00
15450;DHT22;7826;49.784;9.934;2023-10-13T13:13:51;21.00;1.00
15450;DHT22;7826;49.784;9.934;2023-10-13T13:16:18;21.20;1.00
15450;DHT22;7826;49.784;9.934;2023-10-13T13:18:46;21.10;1.00
15450;DHT22;7826;49.784;9.934;2023-10-13T13:21:13;21.20;1.00
15450;DHT22;7826;49.784;9.934;2023-10-13T13:23:47;21.10;1.00
15450;DHT22;7826;49.784;9.934;2023-10-13T13:26:14;21.30;1.00
15450;DHT22;7826;49.784;9.934;2023-10-13T13:28:44;21.30;1.00
15450;DHT22;7826;49.784;9.934;2023-10-13T13:31:11;21.30;1.00
15450;DHT22;7826;49.784;9.934;2023-10-13T13:33:41;21.30;1.00
15450;DHT22;7826;49.784;9.934;2023-10-13T13:36:11;21.30;1.00
15450;DHT22;7826;49.784;9.934;2023-10-13T13:38:42;21.20;1.00
15450;DHT22;7826;49.784;9.934;2023-10-13T13:41:13;21.20;1.00
15450;DHT22;7826;49.784;9.934;2023-10-13T13:43:47;21.30;1.00
15450;DHT22;7826;49.784;9.934;2023-10-13T13:46:17;21.40;1.00
15450;DHT22;7826;49.784;9.934;2023-10-13T13:48:45;21.40;1.00
15450;DHT22;7826;49.784;9.934;2023-10-13T13:51:14;21.50;99.90
15450;DHT22;7826;49.784;9.934;2023-10-13T13:53:46;21.40;1.00
15450;DHT22;7826;49.784;9.934;2023-10-13T13:56:15;21.50;1.00
15450;DHT22;7826;49.784;9.934;2023-10-13T13:58:49;21.50;1.00
15450;DHT22;7826;49.784;9.934;2023-10-13T14:01:17;21.60;1.00
15450;DHT22;7826;49.784;9.934;2023-10-13T14:03:53;21.50;99.90
15450;DHT22;7826;49.784;9.934;2023-10-13T14:06:24;21.50;99.90
15450;DHT22;7826;49.784;9.934;2023-10-13T14:08:53;21.50;1.00
15450;DHT22;7826;49.784;9.934;2023-10-13T14:11:29;21.50;99.90
15450;DHT22;7826;49.784;9.934;2023-10-13T14:14:01;21.50;99.90
15450;DHT22;7826;49.784;9.934;2023-10-13T14:16:32;21.60;99.90
15450;DHT22;7826;49.784;9.934;2023-10-13T14:19:04;21.60;99.90
15450;DHT22;7826;49.784;9.934;2023-10-13T14:21:34;21.60;99.90
15450;DHT22;7826;49.784;9.934;2023-10-13T14:24:01;21.60;99.90
15450;DHT22;7826;49.784;9.934;2023-10-13T14:26:29;21.60;99.90
15450;DHT22;7826;49.784;9.934;2023-10-13T14:28:56;21.50;99.90
15450;DHT22;7826;49.784;9.934;2023-10-13T14:31:32;21.50;99.90
15450;DHT22;7826;49.784;9.934;2023-10-13T14:33:58;21.30;99.90
15450;DHT22;7826;49.784;9.934;2023-10-13T14:36:25;21.20;99.90
15450;DHT22;7826;49.784;9.934;2023-10-13T14:38:55;21.20;99.90
15450;DHT22;7826;49.784;9.934;2023-10-13T14:41:24;21.10;99.90
15450;DHT22;7826;49.784;9.934;2023-10-13T14:43:50;21.10;99.90
15450;DHT22;7826;49.784;9.934;2023-10-13T14:46:19;21.00;99.90
15450;DHT22;7826;49.784;9.934;2023-10-13T14:48:55;21.10;99.90
15450;DHT22;7826;49.784;9.934;2023-10-13T14:51:25;21.00;99.90
15450;DHT22;7826;49.784;9.934;2023-10-13T14:53:51;21.10;99.90
15450;DHT22;7826;49.784;9.934;2023-10-13T14:56:22;21.00;99.90
15450;DHT22;7826;49.784;9.934;2023-10-13T14:58:53;21.00;99.90
15450;DHT22;7826;49.784;9.934;2023-10-13T15:01:21;21.00;99.90
15450;DHT22;7826;49.784;9.934;2023-10-13T15:03:50;21.00;99.90
15450;DHT22;7826;49.784;9.934;2023-10-13T15:06:20;21.00;99.90
15450;DHT22;7826;49.784;9.934;2023-10-13T15:08:52;20.90;1.00
15450;DHT22;7826;49.784;9.934;2023-10-13T15:11:21;20.90;99.90
15450;DHT22;7826;49.784;9.934;2023-10-13T15:13:53;20.90;99.90
15450;DHT22;7826;49.784;9.934;2023-10-13T15:16:24;20.90;99.90
15450;DHT22;7826;49.784;9.934;2023-10-13T15:18:53;20.80;99.90
15450;DHT22;7826;49.784;9.934;2023-10-13T15:21:24;20.80;99.90
15450;DHT22;7826;49.784;9.934;2023-10-13T15:23:54;20.80;99.90
15450;DHT22;7826;49.784;9.934;2023-10-13T15:26:26;20.70;99.90
15450;DHT22;7826;49.784;9.934;2023-10-13T15:28:52;20.70;99.90
15450;DHT22;7826;49.784;9.934;2023-10-13T15:31:27;20.70;99.90
15450;DHT22;7826;49.784;9.934;2023-10-13T15:33:59;20.60;1.00
15450;DHT22;7826;49.784;9.934;2023-10-13T15:36:27;20.60;1.00
15450;DHT22;7826;49.784;9.934;2023-10-13T15:38:57;20.60;99.90
15450;DHT22;7826;49.784;9.934;2023-10-13T15:41:28;20.60;99.90
15450;DHT22;7826;49.784;9.934;2023-10-13T15:43:55;20.60;99.90
15450;DHT22;7826;49.784;9.934;2023-10-13T15:46:23;20.50;99.90
15450;DHT22;7826;49.784;9.934;2023-10-13T15:48:51;20.50;99.90
15450;DHT22;7826;49.784;9.934;2023-10-13T15:51:19;20.50;99.90
15450;DHT22;7826;49.784;9.934;2023-10-13T15:53:47;20.50;99.90
15450;DHT22;7826;49.784;9.934;2023-10-13T15:56:15;20.50;99.90
15450;DHT22;7826;49.784;9.934;2023-10-13T15:58:46;20.50;99.90
15450;DHT22;7826;49.784;9.934;2023-10-13T16:01:13;20.50;99.90
15450;DHT22;7826;49.784;9.934;2023-10-13T16:03:41;20.50;99.90
15450;DHT22;7826;49.784;9.934;2023-10-13T16:06:16;20.50;99.90
15450;DHT22;7826;49.784;9.934;2023-10-13T16:08:43;20.60;99.90
15450;DHT22;7826;49.784;9.934;2023-10-13T16:11:12;20.60;99.90
15450;DHT22;7826;49.784;9.934;2023-10-13T16:13:46;20.50;99.90
15450;DHT22;7826;49.784;9.934;2023-10-13T16:16:20;20.50;99.90
15450;DHT22;7826;49.784;9.934;2023-10-13T16:18:52;20.50;99.90
15450;DHT22;7826;49.784;9.934;2023-10-13T16:21:19;20.50;99.90
15450;DHT22;7826;49.784;9.934;2023-10-13T16:23:48;20.50;99.90
15450;DHT22;7826;49.784;9.934;2023-10-13T16:26:15;20.60;99.90
15450;DHT22;7826;49.784;9.934;2023-10-13T16:28:43;20.50;99.90
15450;DHT22;7826;49.784;9.934;2023-10-13T16:31:10;20.50;99.90
15450;DHT22;7826;49.784;9.934;2023-10-13T16:33:37;20.50;4.90
15450;DHT22;7826;49.784;9.934;2023-10-13T16:36:06;20.60;61.50
15450;DHT22;7826;49.784;9.934;2023-10-13T16:38:36;20.60;9.60
15450;DHT22;7826;49.784;9.934;2023-10-13T16:41:04;20.60;99.90
15450;DHT22;7826;49.784;9.934;2023-10-13T16:43:33;20.60;1.00
15450;DHT22;7826;49.784;9.934;2023-10-13T16:46:02;20.60;1.00
15450;DHT22;7826;49.784;9.934;2023-10-13T16:48:38;20.70;1.00
15450;DHT22;7826;49.784;9.934;2023-10-13T16:51:10;20.70;1.00
15450;DHT22;7826;49.784;9.934;2023-10-13T16:53:39;20.60;1.00